Terminal Aerodrome Forecast
Issued by NWS

Home | Current Version | Previous Version | Text Only | Print | Product List | Glossary Off
Versions: 1 2 3 4 5 6 7 8 9 10 11 12 13 14 15 16

000
FTUS43 KICT 251700
TAFRSL
TAF
KRSL 251720Z 2518/2618 09013KT P6SM SCT080
     FM260000 12011KT P6SM VCTS BKN060CB OVC090
     FM260600 01010KT P6SM VCTS BKN060CB OVC090
     FM261100 04008KT P6SM BKN150=

USA.gov is the U.S. government's official web portal to all federal, state and local government web resources and services.